Saint George's, Grenada

5:59 PM AST on July 20, 2017 (GMT -0400)
True Blue | | Change Station

Elev 69 ft 12.01 °N, 61.77 °W | Updated 7 minutes ago

Clear
Clear
82.9 °F
Feels Like 90 °F
N
1.0
Wind Variable Wind from SSE
Gusts 3.0 mph

Today
High -- | Low -- °F
--% Chance of Precip.
Yesterday
High -- | Low -- °F
Precip. -- in
Pressure 29.89 in
Visibility 6.2 miles
Clouds Few 1700 ft
Heat Index 90 °F
Dew Point 75 °F
Humidity 78%
Rainfall 0.00 in
Snow Depth Not available.
5:51 AM 6:35 PM
Waning Crescent, 9% visible
METAR TGPY 202000Z 09016KT 9999 FEW017TCU 30/24 Q1012 NOSIG TCU-NW
Pressure 29.89 in
Visibility 6.2 miles
Clouds Few 1700 ft
Heat Index 90 °F
Dew Point 75 °F
Humidity 78%
Rainfall 0.00 in
Snow Depth Not available.
5:51 AM 6:35 PM
Waning Crescent, 9% visible
METAR TGPY 202000Z 09016KT 9999 FEW017TCU 30/24 Q1012 NOSIG TCU-NW

Get Severe Weather Alerts

Thanks for signing up!

Be on the lookout for a verification email in your inbox.

You'll start receiving the daily forecast at 6 AM.

×

10-Day Weather Forecast

No radar image for this location.
×

Almanac

Astronomy

Jul. 20, 2017 Rise Set
Actual Time
Civil Twilight
Nautical Twilight
Astronomical Twilight
Moon
Length of Visible Light
Length of Day
Tomorrow will be .
, % of the Moon is Illuminated

Today's Extremes

Country Highs Country Lows

Community

WunderPhotos

Category 6

Welcome to Category 6. This is the collective home for Weather Underground's featured writeups by Dr. Jeff Masters (right), Bob Henson (left), Chris Burt, and other regular contributors.

Nearby

Air Quality

  Air Quality AQ Index Pollutant
Not available.

Snow Depth

Station Depth Elevation

Earthquake Activity

City Distance Mag. Time & Date
Minimum magnitude displayed is 2.5.

Coastal Water Temperatures

Place Temperature

Stations

Nearby Weather Stations

Station Location Temp. Windchill Dew Point Humidity Wind Precip. Elev Updated Type